createdAt,value
2022-09-26T00:02:04.797Z,26.80
2022-09-26T00:04:33.071Z,26.80
2022-09-26T00:07:00.848Z,26.80
2022-09-26T00:09:28.957Z,26.90
2022-09-26T00:11:56.779Z,26.90
2022-09-26T00:14:26.505Z,27.00
2022-09-26T00:16:55.820Z,27.10
2022-09-26T00:19:24.370Z,27.10
2022-09-26T00:21:52.087Z,27.10
2022-09-26T00:24:19.728Z,27.20
2022-09-26T00:26:47.383Z,27.30
2022-09-26T00:29:15.351Z,27.30
2022-09-26T00:31:44.680Z,27.40
2022-09-26T00:34:14.561Z,27.40
2022-09-26T00:36:42.280Z,27.50
2022-09-26T00:39:10.245Z,27.60
2022-09-26T00:41:38.627Z,27.60
2022-09-26T00:44:39.153Z,27.70
2022-09-26T00:47:06.857Z,27.80
2022-09-26T00:49:36.455Z,27.80
2022-09-26T00:52:06.645Z,27.90
2022-09-26T00:54:35.025Z,28.00
2022-09-26T00:57:04.919Z,28.00
2022-09-26T00:59:34.280Z,28.10
2022-09-26T01:02:02.296Z,28.20
2022-09-26T01:04:30.644Z,28.30
2022-09-26T01:07:00.421Z,28.30
2022-09-26T01:09:28.231Z,28.40
2022-09-26T01:11:55.877Z,28.40
2022-09-26T01:14:23.640Z,28.50
2022-09-26T01:16:53.886Z,28.50
2022-09-26T01:19:29.755Z,28.60
2022-09-26T01:22:16.078Z,28.60
2022-09-26T01:25:06.108Z,28.70
2022-09-26T01:27:47.890Z,28.80
2022-09-26T01:30:17.535Z,28.90
2022-09-26T01:33:18.726Z,28.90
2022-09-26T01:36:01.875Z,28.90
2022-09-26T01:38:36.813Z,29.00
2022-09-26T01:41:16.148Z,29.10
2022-09-26T01:43:47.985Z,29.20
2022-09-26T01:46:21.709Z,29.20
2022-09-26T01:48:51.569Z,29.20
2022-09-26T01:51:22.158Z,29.20
2022-09-26T01:53:52.077Z,29.30
2022-09-26T01:56:20.974Z,29.30
2022-09-26T01:58:50.798Z,29.40
2022-09-26T02:01:21.250Z,29.30
2022-09-26T02:03:51.595Z,29.40
2022-09-26T02:06:21.545Z,29.50
2022-09-26T02:08:50.673Z,29.50
2022-09-26T02:11:19.221Z,29.50
2022-09-26T02:13:48.260Z,29.50
2022-09-26T02:16:21.486Z,29.50
2022-09-26T02:18:50.526Z,29.50
2022-09-26T02:21:20.033Z,29.50
2022-09-26T02:23:47.899Z,29.50
2022-09-26T02:26:16.115Z,29.50
2022-09-26T02:28:43.841Z,29.50
2022-09-26T02:31:16.461Z,29.50
2022-09-26T02:33:47.564Z,29.50
2022-09-26T02:36:15.408Z,29.50
2022-09-26T02:38:43.040Z,29.50
2022-09-26T02:41:43.678Z,29.50
2022-09-26T02:44:17.567Z,29.50
2022-09-26T02:47:06.054Z,29.50
2022-09-26T02:49:45.036Z,29.50
2022-09-26T02:52:20.094Z,29.50
2022-09-26T02:54:51.444Z,29.50
2022-09-26T02:57:24.789Z,29.40
2022-09-26T02:59:57.582Z,29.40
2022-09-26T03:02:32.400Z,29.40
2022-09-26T03:05:18.863Z,29.40
2022-09-26T03:07:47.917Z,29.40
2022-09-26T03:10:15.692Z,29.30
2022-09-26T03:12:44.377Z,29.30
2022-09-26T03:15:12.600Z,29.30
2022-09-26T03:17:42.558Z,29.30
2022-09-26T03:20:15.533Z,29.30
2022-09-26T03:22:44.952Z,29.30
2022-09-26T03:25:16.147Z,29.20
2022-09-26T03:27:51.226Z,29.20
2022-09-26T03:30:19.232Z,29.20
2022-09-26T03:33:03.152Z,29.20
2022-09-26T03:35:31.585Z,29.20
2022-09-26T03:38:00.627Z,29.20
2022-09-26T03:40:31.230Z,29.20
2022-09-26T03:43:18.904Z,29.20
2022-09-26T03:45:47.145Z,29.10
2022-09-26T03:48:21.180Z,29.10
2022-09-26T03:50:48.920Z,29.10
2022-09-26T03:53:18.775Z,29.10
2022-09-26T03:55:46.624Z,29.10
2022-09-26T03:58:20.418Z,29.00
2022-09-26T04:00:48.197Z,29.00
2022-09-26T04:03:15.959Z,29.00
2022-09-26T04:05:44.167Z,29.00
2022-09-26T04:08:12.521Z,29.00
2022-09-26T04:10:42.841Z,29.00
2022-09-26T04:13:10.654Z,29.00
2022-09-26T04:15:38.437Z,28.90
2022-09-26T04:18:10.881Z,28.90
2022-09-26T04:20:38.576Z,28.90
2022-09-26T04:23:06.571Z,28.90
2022-09-26T04:25:37.794Z,28.90
2022-09-26T04:28:06.884Z,28.90
2022-09-26T04:30:35.707Z,28.80
2022-09-26T04:33:03.542Z,28.80
2022-09-26T04:35:37.204Z,28.80
2022-09-26T04:38:06.432Z,28.80
2022-09-26T04:40:37.262Z,28.80
2022-09-26T04:43:11.280Z,28.80
2022-09-26T04:45:41.327Z,28.80
2022-09-26T04:48:10.049Z,28.80
2022-09-26T04:50:56.390Z,28.80
2022-09-26T04:53:24.359Z,28.70
2022-09-26T04:56:09.299Z,28.70
2022-09-26T04:58:38.800Z,28.70
2022-09-26T05:01:07.807Z,28.60
2022-09-26T05:03:55.496Z,28.60
2022-09-26T05:06:23.705Z,28.60
2022-09-26T05:08:51.407Z,28.60
2022-09-26T05:11:24.997Z,28.50
2022-09-26T05:13:54.221Z,28.50
2022-09-26T05:16:23.886Z,28.40
2022-09-26T05:18:53.011Z,28.40
2022-09-26T05:21:20.828Z,28.40
2022-09-26T05:24:06.213Z,28.30
2022-09-26T05:26:39.148Z,28.30
2022-09-26T05:29:16.845Z,28.30
2022-09-26T05:31:54.568Z,28.20
2022-09-26T05:34:26.259Z,28.20
2022-09-26T05:36:55.987Z,28.20
2022-09-26T05:39:44.146Z,28.20
2022-09-26T05:42:13.645Z,28.10
2022-09-26T05:44:42.726Z,28.10
2022-09-26T05:47:10.910Z,28.10
2022-09-26T05:49:39.079Z,28.10
2022-09-26T05:52:09.712Z,28.10
2022-09-26T05:54:37.422Z,28.10
2022-09-26T05:57:22.485Z,28.00
2022-09-26T05:59:56.322Z,28.00
2022-09-26T06:02:27.027Z,28.00
2022-09-26T06:05:24.204Z,28.00
2022-09-26T06:08:12.113Z,28.00
2022-09-26T06:10:44.522Z,27.90
2022-09-26T06:13:15.175Z,28.00
2022-09-26T06:15:49.931Z,27.90
2022-09-26T06:18:17.767Z,28.00
2022-09-26T06:20:45.681Z,27.90
2022-09-26T06:23:14.427Z,27.90
2022-09-26T06:25:45.080Z,27.90
2022-09-26T06:28:13.923Z,27.90
2022-09-26T06:30:41.962Z,27.90
2022-09-26T06:33:17.976Z,27.80
2022-09-26T06:36:01.203Z,27.90
2022-09-26T06:38:34.007Z,27.80
2022-09-26T06:41:01.957Z,27.80
2022-09-26T06:43:30.061Z,27.80
2022-09-26T06:46:20.990Z,27.80
2022-09-26T06:48:55.555Z,27.80
2022-09-26T06:52:02.148Z,27.80
2022-09-26T06:54:30.212Z,27.80
2022-09-26T06:56:57.883Z,27.70
2022-09-26T06:59:26.209Z,27.80
2022-09-26T07:02:07.584Z,27.70
2022-09-26T07:05:03.099Z,27.70
2022-09-26T07:07:42.020Z,27.70
2022-09-26T07:10:14.392Z,27.70
2022-09-26T07:12:47.899Z,27.70
2022-09-26T07:15:18.186Z,27.70
2022-09-26T07:17:47.771Z,27.70
2022-09-26T07:20:34.478Z,27.70
2022-09-26T07:23:08.503Z,27.70
2022-09-26T07:25:39.474Z,27.60
2022-09-26T07:28:07.300Z,27.60
2022-09-26T07:30:42.904Z,27.60
2022-09-26T07:33:16.350Z,27.60
2022-09-26T07:35:48.730Z,27.60
2022-09-26T07:38:16.523Z,27.60
2022-09-26T07:40:46.206Z,27.50
2022-09-26T07:43:30.610Z,27.50
2022-09-26T07:46:19.492Z,27.50
2022-09-26T07:49:08.259Z,27.50
2022-09-26T07:51:57.008Z,27.50
2022-09-26T07:54:32.126Z,27.50
2022-09-26T07:57:24.906Z,27.50
2022-09-26T08:00:01.481Z,27.50
2022-09-26T08:02:42.619Z,27.40
2022-09-26T08:05:11.558Z,27.40
2022-09-26T08:07:42.240Z,27.40
2022-09-26T08:10:28.677Z,27.30
2022-09-26T08:13:21.913Z,27.30
2022-09-26T08:16:08.026Z,27.20
2022-09-26T08:18:40.863Z,27.30
2022-09-26T08:21:09.006Z,27.20
2022-09-26T08:23:38.020Z,27.30
2022-09-26T08:26:40.447Z,27.20
2022-09-26T08:29:15.584Z,27.20
2022-09-26T08:31:46.082Z,27.10
2022-09-26T08:34:13.999Z,27.10
2022-09-26T08:36:44.795Z,27.10
2022-09-26T08:39:14.044Z,27.10
2022-09-26T08:42:07.169Z,27.10
2022-09-26T08:45:35.312Z,27.00
2022-09-26T08:48:38.847Z,27.00
2022-09-26T08:51:28.270Z,27.00
2022-09-26T08:54:00.966Z,27.00
2022-09-26T08:56:32.552Z,26.90
2022-09-26T08:59:01.284Z,27.00
2022-09-26T09:01:35.552Z,27.00
2022-09-26T09:04:15.700Z,26.90
2022-09-26T09:06:44.228Z,26.90
2022-09-26T09:09:12.185Z,27.00
2022-09-26T09:12:01.792Z,27.00
2022-09-26T09:15:20.401Z,27.00
2022-09-26T09:18:13.371Z,27.00
2022-09-26T09:21:12.815Z,27.10
2022-09-26T09:24:09.801Z,27.10
2022-09-26T09:29:56.668Z,27.00
2022-09-26T09:32:52.925Z,27.10
2022-09-26T09:35:38.216Z,27.00
2022-09-26T09:38:23.152Z,27.00
2022-09-26T09:41:03.840Z,27.00
2022-09-26T09:43:33.116Z,27.00
2022-09-26T09:46:05.103Z,27.00
2022-09-26T09:48:32.896Z,27.00
2022-09-26T09:51:13.118Z,27.00
2022-09-26T09:53:50.685Z,27.00
2022-09-26T09:56:24.459Z,27.00
2022-09-26T09:59:05.272Z,26.90
2022-09-26T10:01:47.829Z,27.00
2022-09-26T10:04:23.076Z,27.00
2022-09-26T10:06:51.442Z,26.90
2022-09-26T10:09:39.044Z,26.90
2022-09-26T10:12:29.560Z,26.90
2022-09-26T10:15:19.522Z,26.90
2022-09-26T10:18:27.359Z,26.90
2022-09-26T10:21:08.858Z,26.80
2022-09-26T10:23:38.047Z,26.90
2022-09-26T10:26:10.914Z,26.80
2022-09-26T10:28:45.057Z,26.80
2022-09-26T10:31:13.020Z,26.90
2022-09-26T10:34:06.340Z,26.80
2022-09-26T10:36:36.339Z,26.80
2022-09-26T10:39:24.316Z,26.80
2022-09-26T10:41:58.029Z,26.80
2022-09-26T10:44:27.358Z,26.80
2022-09-26T10:47:20.008Z,26.80
2022-09-26T10:50:03.066Z,26.80
2022-09-26T10:53:08.809Z,26.80
2022-09-26T10:55:40.062Z,26.80
2022-09-26T10:58:13.645Z,26.80
2022-09-26T11:00:43.548Z,26.80
2022-09-26T11:03:20.650Z,26.70
2022-09-26T11:06:19.350Z,26.80
2022-09-26T11:08:51.129Z,26.70
2022-09-26T11:11:39.032Z,26.70
2022-09-26T11:14:08.761Z,26.60
2022-09-26T11:16:52.024Z,26.60
2022-09-26T11:19:27.219Z,26.60
2022-09-26T11:21:58.471Z,26.60
2022-09-26T11:24:37.267Z,26.50
2022-09-26T11:27:14.852Z,26.50
2022-09-26T11:29:44.485Z,26.50
2022-09-26T11:32:18.252Z,26.50
2022-09-26T11:35:02.239Z,26.40
2022-09-26T11:37:52.240Z,26.40
2022-09-26T11:40:28.424Z,26.40
2022-09-26T11:43:08.601Z,26.30
2022-09-26T11:45:46.607Z,26.30
2022-09-26T11:48:44.902Z,26.30
2022-09-26T11:52:00.624Z,26.30
2022-09-26T11:54:45.520Z,26.20
2022-09-26T11:57:27.247Z,26.30
2022-09-26T12:00:08.787Z,26.20
2022-09-26T12:03:13.819Z,26.20
2022-09-26T12:05:45.911Z,26.20
2022-09-26T12:08:32.774Z,26.20
2022-09-26T12:11:06.741Z,26.20
2022-09-26T12:13:38.535Z,26.20
2022-09-26T12:16:12.545Z,26.20
2022-09-26T12:18:46.790Z,26.20
2022-09-26T12:21:22.079Z,26.10
2022-09-26T12:23:51.458Z,26.20
2022-09-26T12:26:23.200Z,26.20
2022-09-26T12:29:07.378Z,26.20
2022-09-26T12:31:51.061Z,26.20
2022-09-26T12:34:25.337Z,26.20
2022-09-26T12:37:01.701Z,26.20
2022-09-26T12:39:38.769Z,26.20
2022-09-26T12:42:17.254Z,26.20
2022-09-26T12:44:54.047Z,26.20
2022-09-26T12:47:55.011Z,26.10
2022-09-26T12:50:30.762Z,26.20
2022-09-26T12:53:10.611Z,26.10
2022-09-26T12:55:40.472Z,26.10
2022-09-26T12:58:16.745Z,26.10
2022-09-26T13:00:46.613Z,26.10
2022-09-26T13:03:42.620Z,26.10
2022-09-26T13:06:35.960Z,26.10
2022-09-26T13:09:09.547Z,26.10
2022-09-26T13:11:41.038Z,26.00
2022-09-26T13:14:46.711Z,26.00
2022-09-26T13:17:15.428Z,26.00
2022-09-26T13:19:48.196Z,26.00
2022-09-26T13:22:24.274Z,26.00
2022-09-26T13:24:53.662Z,26.00
2022-09-26T13:27:23.101Z,26.00
2022-09-26T13:29:58.226Z,26.00
2022-09-26T13:32:27.680Z,26.00
2022-09-26T13:34:57.165Z,25.90
2022-09-26T13:37:31.591Z,25.90
2022-09-26T13:40:01.177Z,25.90
2022-09-26T13:42:32.230Z,25.90
2022-09-26T13:45:07.055Z,25.90
2022-09-26T13:47:38.684Z,25.90
2022-09-26T13:50:19.816Z,25.90
2022-09-26T13:52:52.237Z,25.90
2022-09-26T13:55:21.653Z,25.80
2022-09-26T13:57:52.274Z,25.80
2022-09-26T14:00:41.411Z,25.90
2022-09-26T14:03:38.859Z,25.80
2022-09-26T14:06:33.712Z,25.80
2022-09-26T14:09:24.934Z,25.80
2022-09-26T14:11:55.101Z,25.80
2022-09-26T14:14:28.212Z,25.80
2022-09-26T14:16:57.539Z,25.70
2022-09-26T14:19:31.957Z,25.70
2022-09-26T14:22:02.516Z,25.70
2022-09-26T14:24:38.027Z,25.70
2022-09-26T14:27:25.945Z,25.70
2022-09-26T14:29:54.433Z,25.60
2022-09-26T14:32:24.430Z,25.60
2022-09-26T14:34:56.910Z,25.60
2022-09-26T14:37:34.860Z,25.60
2022-09-26T14:40:28.201Z,25.60
2022-09-26T14:42:57.589Z,25.60
2022-09-26T14:45:26.604Z,25.60
2022-09-26T14:48:03.077Z,25.60
2022-09-26T14:50:35.476Z,25.60
2022-09-26T14:53:10.620Z,25.60
2022-09-26T14:55:38.406Z,25.60
2022-09-26T14:58:18.581Z,25.60
2022-09-26T15:00:47.435Z,25.60
2022-09-26T15:03:17.527Z,25.60
2022-09-26T15:05:45.236Z,25.50
2022-09-26T15:08:24.606Z,25.50
2022-09-26T15:10:52.768Z,25.50
2022-09-26T15:13:26.468Z,25.50
2022-09-26T15:16:01.074Z,25.40
2022-09-26T15:18:35.774Z,25.40
2022-09-26T15:21:07.083Z,25.40
2022-09-26T15:23:35.324Z,25.40
2022-09-26T15:26:03.439Z,25.40
2022-09-26T15:28:34.628Z,25.40
2022-09-26T15:31:22.704Z,25.30
2022-09-26T15:33:53.037Z,25.30
2022-09-26T15:36:20.724Z,25.30
2022-09-26T15:38:49.381Z,25.30
2022-09-26T15:41:38.075Z,25.30
2022-09-26T15:44:07.285Z,25.30
2022-09-26T15:46:35.091Z,25.30
2022-09-26T15:49:05.889Z,25.30
2022-09-26T15:51:37.512Z,25.30
2022-09-26T15:54:06.220Z,25.30
2022-09-26T15:56:35.408Z,25.20
2022-09-26T15:59:03.820Z,25.20
2022-09-26T16:01:31.911Z,25.20
2022-09-26T16:03:59.725Z,25.20
2022-09-26T16:06:30.950Z,25.20
2022-09-26T16:09:07.122Z,25.20
2022-09-26T16:11:34.817Z,25.20
2022-09-26T16:14:02.586Z,25.20
2022-09-26T16:16:32.034Z,25.20
2022-09-26T16:19:00.888Z,25.20
2022-09-26T16:21:31.981Z,25.20
2022-09-26T16:24:00.642Z,25.10
2022-09-26T16:26:32.190Z,25.10
2022-09-26T16:29:00.597Z,25.10
2022-09-26T16:31:30.261Z,25.10
2022-09-26T16:33:58.681Z,25.10
2022-09-26T16:36:27.574Z,25.10
2022-09-26T16:39:00.682Z,25.10
2022-09-26T16:44:27.463Z,25.10
2022-09-26T16:46:58.722Z,25.00
2022-09-26T16:49:31.979Z,25.00
2022-09-26T16:52:27.760Z,25.10
2022-09-26T16:54:57.378Z,25.10
2022-09-26T16:57:26.647Z,25.00
2022-09-26T17:00:14.336Z,25.00
2022-09-26T17:02:41.069Z,25.00
2022-09-26T17:05:16.786Z,25.00
2022-09-26T17:07:44.472Z,25.00
2022-09-26T17:10:13.716Z,24.90
2022-09-26T17:12:41.419Z,25.00
2022-09-26T17:15:10.203Z,24.90
2022-09-26T17:17:38.256Z,24.90
2022-09-26T17:20:06.997Z,24.90
2022-09-26T17:22:34.662Z,24.90
2022-09-26T17:25:02.529Z,24.90
2022-09-26T17:27:34.020Z,24.90
2022-09-26T17:30:02.364Z,24.90
2022-09-26T17:32:31.843Z,24.90
2022-09-26T17:35:00.339Z,24.90
2022-09-26T17:37:28.019Z,24.90
2022-09-26T17:39:56.011Z,24.90
2022-09-26T17:42:23.751Z,24.90
2022-09-26T17:44:52.767Z,24.80
2022-09-26T17:47:20.432Z,24.80
2022-09-26T17:49:51.008Z,24.80
2022-09-26T17:52:24.832Z,24.80
2022-09-26T17:54:55.737Z,24.80
2022-09-26T17:57:27.631Z,24.80
2022-09-26T17:59:56.821Z,24.80
2022-09-26T18:02:26.541Z,24.80
2022-09-26T18:04:54.270Z,24.80
2022-09-26T18:07:22.271Z,24.80
2022-09-26T18:09:50.537Z,24.70
2022-09-26T18:12:21.432Z,24.70
2022-09-26T18:14:49.251Z,24.70
2022-09-26T18:17:18.768Z,24.70
2022-09-26T18:19:46.835Z,24.70
2022-09-26T18:22:16.246Z,24.70
2022-09-26T18:24:45.260Z,24.70
2022-09-26T18:27:13.775Z,24.60
2022-09-26T18:29:42.690Z,24.60
2022-09-26T18:32:12.699Z,24.60
2022-09-26T18:34:41.708Z,24.60
2022-09-26T18:37:09.515Z,24.60
2022-09-26T18:39:37.208Z,24.60
2022-09-26T18:42:09.108Z,24.60
2022-09-26T18:44:36.828Z,24.60
2022-09-26T18:47:06.748Z,24.60
2022-09-26T18:49:34.996Z,24.50
2022-09-26T18:52:04.172Z,24.60
2022-09-26T18:54:32.121Z,24.50
2022-09-26T18:57:17.355Z,24.50
2022-09-26T18:59:45.466Z,24.50
2022-09-26T19:02:19.646Z,24.50
2022-09-26T19:04:47.431Z,24.50
2022-09-26T19:07:21.075Z,24.50
2022-09-26T19:09:49.100Z,24.50
2022-09-26T19:12:17.040Z,24.50
2022-09-26T19:14:44.816Z,24.50
2022-09-26T19:17:12.517Z,24.50
2022-09-26T19:19:40.191Z,24.50
2022-09-26T19:22:10.174Z,24.50
2022-09-26T19:24:39.608Z,24.50
2022-09-26T19:27:08.284Z,24.50
2022-09-26T19:29:39.540Z,24.50
2022-09-26T19:32:07.388Z,24.50
2022-09-26T19:34:35.035Z,24.40
2022-09-26T19:37:03.913Z,24.40
2022-09-26T19:39:32.267Z,24.40
2022-09-26T19:42:01.561Z,24.40
2022-09-26T19:44:29.253Z,24.40
2022-09-26T19:46:59.684Z,24.40
2022-09-26T19:49:27.461Z,24.40
2022-09-26T19:51:55.142Z,24.40
2022-09-26T19:54:23.186Z,24.40
2022-09-26T19:56:50.884Z,24.40
2022-09-26T19:59:22.918Z,24.40
2022-09-26T20:01:53.186Z,24.40
2022-09-26T20:04:20.935Z,24.40
2022-09-26T20:06:48.594Z,24.40
2022-09-26T20:09:18.116Z,24.40
2022-09-26T20:11:46.044Z,24.40
2022-09-26T20:14:25.958Z,24.40
2022-09-26T20:16:59.247Z,24.40
2022-09-26T20:19:33.274Z,24.40
2022-09-26T20:22:02.863Z,24.30
2022-09-26T20:24:32.097Z,24.30
2022-09-26T20:27:00.693Z,24.30
2022-09-26T20:29:28.412Z,24.30
2022-09-26T20:31:56.071Z,24.30
2022-09-26T20:34:25.547Z,24.30
2022-09-26T20:36:53.236Z,24.30
2022-09-26T20:39:22.584Z,24.30
2022-09-26T20:41:50.249Z,24.30
2022-09-26T20:44:19.146Z,24.30
2022-09-26T20:46:49.657Z,24.30
2022-09-26T20:49:20.200Z,24.30
2022-09-26T20:51:49.808Z,24.30
2022-09-26T20:54:26.438Z,24.30
2022-09-26T20:56:54.778Z,24.30
2022-09-26T20:59:22.639Z,24.30
2022-09-26T21:01:50.438Z,24.30
2022-09-26T21:04:18.842Z,24.30
2022-09-26T21:06:46.587Z,24.30
2022-09-26T21:09:16.817Z,24.30
2022-09-26T21:11:44.666Z,24.30
2022-09-26T21:14:12.314Z,24.20
2022-09-26T21:16:42.668Z,24.20
2022-09-26T21:19:12.078Z,24.20
2022-09-26T21:21:39.794Z,24.20
2022-09-26T21:24:21.558Z,24.20
2022-09-26T21:26:51.890Z,24.30
2022-09-26T21:29:19.653Z,24.20
2022-09-26T21:31:48.947Z,24.30
2022-09-26T21:34:19.706Z,24.20
2022-09-26T21:36:47.424Z,24.30
2022-09-26T21:39:17.454Z,24.20
2022-09-26T21:41:45.526Z,24.30
2022-09-26T21:44:14.693Z,24.30
2022-09-26T21:46:42.324Z,24.30
2022-09-26T21:49:10.023Z,24.30
2022-09-26T21:51:37.736Z,24.30
2022-09-26T21:54:07.068Z,24.30
2022-09-26T21:56:38.632Z,24.30
2022-09-26T21:59:06.628Z,24.30
2022-09-26T22:01:34.346Z,24.20
2022-09-26T22:04:02.372Z,24.30
2022-09-26T22:06:30.043Z,24.30
2022-09-26T22:08:57.730Z,24.30
2022-09-26T22:11:25.895Z,24.30
2022-09-26T22:13:56.319Z,24.30
2022-09-26T22:16:24.015Z,24.30
2022-09-26T22:18:51.696Z,24.30
2022-09-26T22:21:19.368Z,24.30
2022-09-26T22:23:49.744Z,24.30
2022-09-26T22:26:17.488Z,24.30
2022-09-26T22:28:45.511Z,24.40
2022-09-26T22:31:14.557Z,24.30
2022-09-26T22:33:42.227Z,24.40
2022-09-26T22:36:09.940Z,24.40
2022-09-26T22:38:37.793Z,24.40
2022-09-26T22:41:07.025Z,24.40
2022-09-26T22:43:34.914Z,24.40
2022-09-26T22:46:03.210Z,24.40
2022-09-26T22:48:33.418Z,24.40
2022-09-26T22:51:01.276Z,24.50
2022-09-26T22:53:29.096Z,24.50
2022-09-26T22:55:57.416Z,24.50
2022-09-26T22:58:25.688Z,24.50
2022-09-26T23:00:53.434Z,24.50
2022-09-26T23:03:21.089Z,24.50
2022-09-26T23:05:51.159Z,24.50
2022-09-26T23:08:18.816Z,24.50
2022-09-26T23:10:50.072Z,24.50
2022-09-26T23:13:17.856Z,24.60
2022-09-26T23:15:45.664Z,24.60
2022-09-26T23:18:13.440Z,24.60
2022-09-26T23:20:41.135Z,24.60
2022-09-26T23:23:10.240Z,24.60
2022-09-26T23:25:37.955Z,24.60
2022-09-26T23:28:05.620Z,24.60
2022-09-26T23:30:33.324Z,24.60
2022-09-26T23:33:01.288Z,24.70
2022-09-26T23:35:28.993Z,24.70
2022-09-26T23:37:56.620Z,24.70
2022-09-26T23:40:25.648Z,24.70
2022-09-26T23:42:53.370Z,24.70
2022-09-26T23:45:21.021Z,24.70
2022-09-26T23:47:49.171Z,24.70
2022-09-26T23:50:16.961Z,24.70
2022-09-26T23:52:44.745Z,24.80
2022-09-26T23:55:12.891Z,24.80
2022-09-26T23:57:41.857Z,24.80
